sensor_id;sensor_type;location;lat;lon;timestamp;temperature;humidity
11619;DHT22;5865;48.776;9.280;2023-03-15T00:01:01;1.80;99.90
11619;DHT22;5865;48.776;9.280;2023-03-15T00:03:29;1.70;99.90
11619;DHT22;5865;48.776;9.280;2023-03-15T00:08:26;1.90;99.90
11619;DHT22;5865;48.776;9.280;2023-03-15T00:11:02;1.90;99.90
11619;DHT22;5865;48.776;9.280;2023-03-15T00:13:30;1.80;99.90
11619;DHT22;5865;48.776;9.280;2023-03-15T00:15:58;1.90;99.90
11619;DHT22;5865;48.776;9.280;2023-03-15T00:23:22;1.90;99.90
11619;DHT22;5865;48.776;9.280;2023-03-15T00:25:50;1.90;99.90
11619;DHT22;5865;48.776;9.280;2023-03-15T00:28:19;1.80;99.90
11619;DHT22;5865;48.776;9.280;2023-03-15T00:33:15;1.90;99.90
11619;DHT22;5865;48.776;9.280;2023-03-15T00:35:43;1.80;99.90
11619;DHT22;5865;48.776;9.280;2023-03-15T00:40:52;1.90;99.90
11619;DHT22;5865;48.776;9.280;2023-03-15T00:48:15;1.70;99.90
11619;DHT22;5865;48.776;9.280;2023-03-15T00:50:42;1.80;99.90
11619;DHT22;5865;48.776;9.280;2023-03-15T00:53:09;1.80;99.90
11619;DHT22;5865;48.776;9.280;2023-03-15T00:58:03;1.70;99.90
11619;DHT22;5865;48.776;9.280;2023-03-15T01:00:31;1.60;99.90
11619;DHT22;5865;48.776;9.280;2023-03-15T01:05:26;1.70;99.90
11619;DHT22;5865;48.776;9.280;2023-03-15T01:07:53;1.80;99.90
11619;DHT22;5865;48.776;9.280;2023-03-15T01:10:21;1.70;99.90
11619;DHT22;5865;48.776;9.280;2023-03-15T01:12:48;1.80;99.90
11619;DHT22;5865;48.776;9.280;2023-03-15T01:15:15;1.80;99.90
11619;DHT22;5865;48.776;9.280;2023-03-15T01:17:44;1.80;99.90
11619;DHT22;5865;48.776;9.280;2023-03-15T01:20:13;1.80;99.90
11619;DHT22;5865;48.776;9.280;2023-03-15T01:22:41;1.80;99.90
11619;DHT22;5865;48.776;9.280;2023-03-15T01:25:09;1.90;99.90
11619;DHT22;5865;48.776;9.280;2023-03-15T01:30:05;1.90;99.90
11619;DHT22;5865;48.776;9.280;2023-03-15T01:35:01;1.90;99.90
11619;DHT22;5865;48.776;9.280;2023-03-15T01:39:56;1.80;99.90
11619;DHT22;5865;48.776;9.280;2023-03-15T01:42:23;1.80;99.90
11619;DHT22;5865;48.776;9.280;2023-03-15T01:44:56;1.70;99.90
11619;DHT22;5865;48.776;9.280;2023-03-15T01:47:25;1.60;99.90
11619;DHT22;5865;48.776;9.280;2023-03-15T01:50:03;1.50;99.90
11619;DHT22;5865;48.776;9.280;2023-03-15T01:55:06;1.40;99.90
11619;DHT22;5865;48.776;9.280;2023-03-15T01:57:37;1.20;99.90
11619;DHT22;5865;48.776;9.280;2023-03-15T02:00:11;1.10;99.90
11619;DHT22;5865;48.776;9.280;2023-03-15T02:02:42;1.00;99.90
11619;DHT22;5865;48.776;9.280;2023-03-15T02:05:24;0.90;99.90
11619;DHT22;5865;48.776;9.280;2023-03-15T02:07:53;0.80;99.90
11619;DHT22;5865;48.776;9.280;2023-03-15T02:10:27;0.80;99.90
11619;DHT22;5865;48.776;9.280;2023-03-15T02:12:58;0.70;99.90
11619;DHT22;5865;48.776;9.280;2023-03-15T02:15:29;0.70;99.90
11619;DHT22;5865;48.776;9.280;2023-03-15T02:17:58;0.30;99.90
11619;DHT22;5865;48.776;9.280;2023-03-15T02:20:34;0.20;99.90
11619;DHT22;5865;48.776;9.280;2023-03-15T02:23:05;0.10;99.90
11619;DHT22;5865;48.776;9.280;2023-03-15T02:25:39;0.00;99.90
11619;DHT22;5865;48.776;9.280;2023-03-15T02:28:12;0.10;99.90
11619;DHT22;5865;48.776;9.280;2023-03-15T02:30:41;0.00;99.90
11619;DHT22;5865;48.776;9.280;2023-03-15T02:33:13;0.00;99.90
11619;DHT22;5865;48.776;9.280;2023-03-15T02:35:42;-0.10;99.90
11619;DHT22;5865;48.776;9.280;2023-03-15T02:38:12;-0.20;99.90
11619;DHT22;5865;48.776;9.280;2023-03-15T02:43:13;-0.40;99.90
11619;DHT22;5865;48.776;9.280;2023-03-15T02:45:41;-0.50;99.90
11619;DHT22;5865;48.776;9.280;2023-03-15T02:48:10;-0.40;99.90
11619;DHT22;5865;48.776;9.280;2023-03-15T02:50:37;-0.40;99.90
11619;DHT22;5865;48.776;9.280;2023-03-15T02:53:04;-0.30;99.90
11619;DHT22;5865;48.776;9.280;2023-03-15T02:55:31;-0.20;99.90
11619;DHT22;5865;48.776;9.280;2023-03-15T02:57:58;-0.30;99.90
11619;DHT22;5865;48.776;9.280;2023-03-15T03:02:56;-0.40;99.90
11619;DHT22;5865;48.776;9.280;2023-03-15T03:05:24;-0.40;99.90
11619;DHT22;5865;48.776;9.280;2023-03-15T03:07:51;-0.50;99.90
11619;DHT22;5865;48.776;9.280;2023-03-15T03:12:55;-0.60;99.90
11619;DHT22;5865;48.776;9.280;2023-03-15T03:18:04;-0.80;99.90
11619;DHT22;5865;48.776;9.280;2023-03-15T03:22:59;-1.00;99.90
11619;DHT22;5865;48.776;9.280;2023-03-15T03:25:31;-1.00;99.90
11619;DHT22;5865;48.776;9.280;2023-03-15T03:27:58;-1.10;99.90
11619;DHT22;5865;48.776;9.280;2023-03-15T03:30:29;-1.20;99.90
11619;DHT22;5865;48.776;9.280;2023-03-15T03:35:28;-1.00;99.90
11619;DHT22;5865;48.776;9.280;2023-03-15T03:43:00;-1.20;99.90
11619;DHT22;5865;48.776;9.280;2023-03-15T04:05:57;-1.60;99.90
11619;DHT22;5865;48.776;9.280;2023-03-15T04:08:27;-1.60;99.90
11619;DHT22;5865;48.776;9.280;2023-03-15T04:10:55;-1.70;99.90
11619;DHT22;5865;48.776;9.280;2023-03-15T04:15:54;-1.80;99.90
11619;DHT22;5865;48.776;9.280;2023-03-15T04:18:25;-1.70;99.90
11619;DHT22;5865;48.776;9.280;2023-03-15T04:20:56;-1.80;99.90
11619;DHT22;5865;48.776;9.280;2023-03-15T04:23:24;-1.80;99.90
11619;DHT22;5865;48.776;9.280;2023-03-15T04:26:06;-1.80;99.90
11619;DHT22;5865;48.776;9.280;2023-03-15T04:29:09;-1.80;99.90
11619;DHT22;5865;48.776;9.280;2023-03-15T04:31:54;-1.90;99.90
11619;DHT22;5865;48.776;9.280;2023-03-15T04:34:43;-1.60;99.90
11619;DHT22;5865;48.776;9.280;2023-03-15T04:37:17;-1.70;99.90
11619;DHT22;5865;48.776;9.280;2023-03-15T04:40:08;-1.80;99.90
11619;DHT22;5865;48.776;9.280;2023-03-15T04:42:46;-1.80;99.90
11619;DHT22;5865;48.776;9.280;2023-03-15T04:45:53;-2.10;99.90
11619;DHT22;5865;48.776;9.280;2023-03-15T04:48:30;-2.10;99.90
11619;DHT22;5865;48.776;9.280;2023-03-15T04:53:59;-2.20;99.90
11619;DHT22;5865;48.776;9.280;2023-03-15T04:59:28;-2.10;99.90
11619;DHT22;5865;48.776;9.280;2023-03-15T05:02:15;-2.00;99.90
11619;DHT22;5865;48.776;9.280;2023-03-15T05:05:01;-2.00;99.90
11619;DHT22;5865;48.776;9.280;2023-03-15T05:18:56;-1.10;99.90
11619;DHT22;5865;48.776;9.280;2023-03-15T05:30:19;-2.30;99.90
11619;DHT22;5865;48.776;9.280;2023-03-15T05:58:32;-2.10;99.90
11619;DHT22;5865;48.776;9.280;2023-03-15T06:01:20;-2.10;99.90
11619;DHT22;5865;48.776;9.280;2023-03-15T06:06:35;-2.00;99.90
11619;DHT22;5865;48.776;9.280;2023-03-15T06:11:34;-1.90;99.90
11619;DHT22;5865;48.776;9.280;2023-03-15T06:16:48;-1.80;99.90
11619;DHT22;5865;48.776;9.280;2023-03-15T06:21:46;-1.90;99.90
11619;DHT22;5865;48.776;9.280;2023-03-15T06:24:24;-1.80;99.90
11619;DHT22;5865;48.776;9.280;2023-03-15T06:26:53;-1.70;99.90
11619;DHT22;5865;48.776;9.280;2023-03-15T06:29:23;-1.30;99.90
11619;DHT22;5865;48.776;9.280;2023-03-15T06:31:53;-1.30;99.90
11619;DHT22;5865;48.776;9.280;2023-03-15T06:36:53;-1.30;99.90
11619;DHT22;5865;48.776;9.280;2023-03-15T06:39:21;-1.00;99.90
11619;DHT22;5865;48.776;9.280;2023-03-15T06:41:50;-0.90;99.90
11619;DHT22;5865;48.776;9.280;2023-03-15T06:44:26;-0.90;99.90
11619;DHT22;5865;48.776;9.280;2023-03-15T06:49:26;-0.60;99.90
11619;DHT22;5865;48.776;9.280;2023-03-15T06:54:24;-0.40;99.90
11619;DHT22;5865;48.776;9.280;2023-03-15T07:52:26;2.50;99.90
11619;DHT22;5865;48.776;9.280;2023-03-15T07:55:01;2.60;99.90
11619;DHT22;5865;48.776;9.280;2023-03-15T08:00:18;3.10;99.90
11619;DHT22;5865;48.776;9.280;2023-03-15T08:10:16;3.40;99.90
11619;DHT22;5865;48.776;9.280;2023-03-15T08:12:44;3.40;99.90
11619;DHT22;5865;48.776;9.280;2023-03-15T08:20:51;4.00;99.90
11619;DHT22;5865;48.776;9.280;2023-03-15T08:31:30;4.40;99.90
11619;DHT22;5865;48.776;9.280;2023-03-15T08:36:56;4.30;99.90
11619;DHT22;5865;48.776;9.280;2023-03-15T08:44:47;4.90;99.90
11619;DHT22;5865;48.776;9.280;2023-03-15T08:50:05;5.10;99.90
11619;DHT22;5865;48.776;9.280;2023-03-15T08:55:28;5.40;99.90
11619;DHT22;5865;48.776;9.280;2023-03-15T08:58:09;5.50;99.90
11619;DHT22;5865;48.776;9.280;2023-03-15T09:03:51;5.90;99.90
11619;DHT22;5865;48.776;9.280;2023-03-15T09:14:36;6.30;99.90
11619;DHT22;5865;48.776;9.280;2023-03-15T09:27:56;6.00;99.90
11619;DHT22;5865;48.776;9.280;2023-03-15T09:30:38;6.30;99.90
11619;DHT22;5865;48.776;9.280;2023-03-15T09:40:39;6.60;99.90
11619;DHT22;5865;48.776;9.280;2023-03-15T09:43:25;6.60;99.90
11619;DHT22;5865;48.776;9.280;2023-03-15T09:46:06;7.00;99.90
11619;DHT22;5865;48.776;9.280;2023-03-15T09:48:44;7.30;99.90
11619;DHT22;5865;48.776;9.280;2023-03-15T09:51:26;7.60;99.90
11619;DHT22;5865;48.776;9.280;2023-03-15T09:53:59;7.60;99.90
11619;DHT22;5865;48.776;9.280;2023-03-15T09:56:32;7.20;99.90
11619;DHT22;5865;48.776;9.280;2023-03-15T09:59:02;7.20;99.90
11619;DHT22;5865;48.776;9.280;2023-03-15T10:04:04;7.30;99.90
11619;DHT22;5865;48.776;9.280;2023-03-15T10:06:38;7.10;99.90
11619;DHT22;5865;48.776;9.280;2023-03-15T10:09:14;6.80;99.90
11619;DHT22;5865;48.776;9.280;2023-03-15T10:11:49;6.40;99.90
11619;DHT22;5865;48.776;9.280;2023-03-15T10:14:29;6.70;99.90
11619;DHT22;5865;48.776;9.280;2023-03-15T10:17:11;7.00;99.90
11619;DHT22;5865;48.776;9.280;2023-03-15T10:19:43;7.40;99.90
11619;DHT22;5865;48.776;9.280;2023-03-15T10:22:22;7.60;99.90
11619;DHT22;5865;48.776;9.280;2023-03-15T10:24:56;7.40;99.90
11619;DHT22;5865;48.776;9.280;2023-03-15T10:27:31;7.20;99.90
11619;DHT22;5865;48.776;9.280;2023-03-15T10:30:00;7.70;99.90
11619;DHT22;5865;48.776;9.280;2023-03-15T10:32:43;7.40;99.90
11619;DHT22;5865;48.776;9.280;2023-03-15T10:35:15;7.50;99.90
11619;DHT22;5865;48.776;9.280;2023-03-15T10:40:38;7.00;99.90
11619;DHT22;5865;48.776;9.280;2023-03-15T10:43:17;7.30;99.90
11619;DHT22;5865;48.776;9.280;2023-03-15T10:45:59;7.50;99.90
11619;DHT22;5865;48.776;9.280;2023-03-15T10:48:33;7.60;99.90
11619;DHT22;5865;48.776;9.280;2023-03-15T10:51:17;7.50;99.90
11619;DHT22;5865;48.776;9.280;2023-03-15T10:53:57;7.20;99.90
11619;DHT22;5865;48.776;9.280;2023-03-15T10:56:44;7.50;99.90
11619;DHT22;5865;48.776;9.280;2023-03-15T10:59:18;7.70;99.90
11619;DHT22;5865;48.776;9.280;2023-03-15T11:01:51;7.60;99.90
11619;DHT22;5865;48.776;9.280;2023-03-15T11:04:24;7.70;99.90
11619;DHT22;5865;48.776;9.280;2023-03-15T11:07:00;7.90;99.90
11619;DHT22;5865;48.776;9.280;2023-03-15T11:12:07;7.40;99.90
11619;DHT22;5865;48.776;9.280;2023-03-15T11:14:39;7.50;99.90
11619;DHT22;5865;48.776;9.280;2023-03-15T11:17:14;7.70;99.90
11619;DHT22;5865;48.776;9.280;2023-03-15T11:19:50;7.50;99.90
11619;DHT22;5865;48.776;9.280;2023-03-15T11:24:50;7.10;99.90
11619;DHT22;5865;48.776;9.280;2023-03-15T11:27:21;6.90;99.90
11619;DHT22;5865;48.776;9.280;2023-03-15T11:29:53;6.90;99.90
11619;DHT22;5865;48.776;9.280;2023-03-15T11:32:23;7.00;99.90
11619;DHT22;5865;48.776;9.280;2023-03-15T11:34:56;7.10;99.90
11619;DHT22;5865;48.776;9.280;2023-03-15T11:37:35;7.10;99.90
11619;DHT22;5865;48.776;9.280;2023-03-15T11:40:11;7.10;99.90
11619;DHT22;5865;48.776;9.280;2023-03-15T12:23:12;8.60;96.50
11619;DHT22;5865;48.776;9.280;2023-03-15T12:39:42;8.70;94.60
11619;DHT22;5865;48.776;9.280;2023-03-15T12:45:38;8.90;94.80
11619;DHT22;5865;48.776;9.280;2023-03-15T12:48:25;8.90;94.60
11619;DHT22;5865;48.776;9.280;2023-03-15T12:50:58;9.00;94.10
11619;DHT22;5865;48.776;9.280;2023-03-15T12:53:47;9.00;93.90
11619;DHT22;5865;48.776;9.280;2023-03-15T12:56:28;9.20;94.30
11619;DHT22;5865;48.776;9.280;2023-03-15T12:59:02;9.20;94.40
11619;DHT22;5865;48.776;9.280;2023-03-15T13:06:41;8.30;99.90
11619;DHT22;5865;48.776;9.280;2023-03-15T13:09:22;7.50;99.90
11619;DHT22;5865;48.776;9.280;2023-03-15T13:11:59;7.20;99.90
11619;DHT22;5865;48.776;9.280;2023-03-15T13:14:37;7.20;99.90
11619;DHT22;5865;48.776;9.280;2023-03-15T13:17:17;7.00;99.90
11619;DHT22;5865;48.776;9.280;2023-03-15T13:19:53;7.00;99.90
11619;DHT22;5865;48.776;9.280;2023-03-15T13:25:02;7.00;99.90
11619;DHT22;5865;48.776;9.280;2023-03-15T13:30:29;7.40;99.90
11619;DHT22;5865;48.776;9.280;2023-03-15T13:33:11;7.90;99.90
11619;DHT22;5865;48.776;9.280;2023-03-15T13:35:46;8.40;99.90
11619;DHT22;5865;48.776;9.280;2023-03-15T13:38:31;8.50;99.90
11619;DHT22;5865;48.776;9.280;2023-03-15T13:41:03;8.50;99.90
11619;DHT22;5865;48.776;9.280;2023-03-15T13:43:44;8.10;99.90
11619;DHT22;5865;48.776;9.280;2023-03-15T13:46:14;7.50;99.90
11619;DHT22;5865;48.776;9.280;2023-03-15T14:25:52;6.90;99.90
11619;DHT22;5865;48.776;9.280;2023-03-15T15:14:53;5.10;99.90
11619;DHT22;5865;48.776;9.280;2023-03-15T15:17:20;4.30;99.90
11619;DHT22;5865;48.776;9.280;2023-03-15T15:19:48;4.30;99.90
11619;DHT22;5865;48.776;9.280;2023-03-15T15:22:15;4.00;99.90
11619;DHT22;5865;48.776;9.280;2023-03-15T15:24:42;4.00;99.90
11619;DHT22;5865;48.776;9.280;2023-03-15T15:27:10;3.60;99.90
11619;DHT22;5865;48.776;9.280;2023-03-15T15:29:37;3.60;99.90
11619;DHT22;5865;48.776;9.280;2023-03-15T15:32:06;3.40;99.90
11619;DHT22;5865;48.776;9.280;2023-03-15T15:34:33;3.30;99.90
11619;DHT22;5865;48.776;9.280;2023-03-15T15:37:01;3.40;99.90
11619;DHT22;5865;48.776;9.280;2023-03-15T15:39:29;3.30;99.90
11619;DHT22;5865;48.776;9.280;2023-03-15T15:41:56;3.20;99.90
11619;DHT22;5865;48.776;9.280;2023-03-15T15:44:23;3.00;99.90
11619;DHT22;5865;48.776;9.280;2023-03-15T15:46:51;2.90;99.90
11619;DHT22;5865;48.776;9.280;2023-03-15T15:49:19;2.70;99.90
11619;DHT22;5865;48.776;9.280;2023-03-15T15:51:47;2.50;99.90
11619;DHT22;5865;48.776;9.280;2023-03-15T15:54:17;2.40;99.90
11619;DHT22;5865;48.776;9.280;2023-03-15T15:56:47;2.50;99.90
11619;DHT22;5865;48.776;9.280;2023-03-15T15:59:15;2.50;99.90
11619;DHT22;5865;48.776;9.280;2023-03-15T16:01:44;2.60;99.90
11619;DHT22;5865;48.776;9.280;2023-03-15T16:04:11;2.80;99.90
11619;DHT22;5865;48.776;9.280;2023-03-15T16:06:40;2.80;99.90
11619;DHT22;5865;48.776;9.280;2023-03-15T16:09:07;3.20;99.90
11619;DHT22;5865;48.776;9.280;2023-03-15T16:11:34;3.30;99.90
11619;DHT22;5865;48.776;9.280;2023-03-15T16:14:02;3.40;99.90
11619;DHT22;5865;48.776;9.280;2023-03-15T16:16:29;3.40;99.90
11619;DHT22;5865;48.776;9.280;2023-03-15T16:18:56;3.60;99.90
11619;DHT22;5865;48.776;9.280;2023-03-15T16:21:28;3.80;99.90
11619;DHT22;5865;48.776;9.280;2023-03-15T16:24:03;3.90;99.90
11619;DHT22;5865;48.776;9.280;2023-03-15T16:26:31;4.00;99.90
11619;DHT22;5865;48.776;9.280;2023-03-15T16:28:59;4.00;99.90
11619;DHT22;5865;48.776;9.280;2023-03-15T16:31:26;4.00;99.90
11619;DHT22;5865;48.776;9.280;2023-03-15T16:33:53;4.00;99.90
11619;DHT22;5865;48.776;9.280;2023-03-15T16:36:21;4.10;99.90
11619;DHT22;5865;48.776;9.280;2023-03-15T16:38:49;4.10;99.90
11619;DHT22;5865;48.776;9.280;2023-03-15T16:41:18;4.00;99.90
11619;DHT22;5865;48.776;9.280;2023-03-15T16:43:45;4.00;99.90
11619;DHT22;5865;48.776;9.280;2023-03-15T16:46:13;3.90;99.90
11619;DHT22;5865;48.776;9.280;2023-03-15T16:48:41;3.80;99.90
11619;DHT22;5865;48.776;9.280;2023-03-15T16:51:08;3.80;99.90
11619;DHT22;5865;48.776;9.280;2023-03-15T16:53:37;3.80;99.90
11619;DHT22;5865;48.776;9.280;2023-03-15T16:56:05;3.80;99.90
11619;DHT22;5865;48.776;9.280;2023-03-15T16:58:36;3.90;99.90
11619;DHT22;5865;48.776;9.280;2023-03-15T17:01:03;3.80;99.90
11619;DHT22;5865;48.776;9.280;2023-03-15T17:03:32;3.90;99.90
11619;DHT22;5865;48.776;9.280;2023-03-15T17:06:00;3.80;99.90
11619;DHT22;5865;48.776;9.280;2023-03-15T17:08:27;3.80;99.90
11619;DHT22;5865;48.776;9.280;2023-03-15T17:10:54;3.60;99.90
11619;DHT22;5865;48.776;9.280;2023-03-15T17:13:24;3.50;99.90
11619;DHT22;5865;48.776;9.280;2023-03-15T17:15:53;3.50;99.90
11619;DHT22;5865;48.776;9.280;2023-03-15T17:18:20;3.40;99.90
11619;DHT22;5865;48.776;9.280;2023-03-15T17:20:49;3.30;99.90
11619;DHT22;5865;48.776;9.280;2023-03-15T17:23:16;3.20;99.90
11619;DHT22;5865;48.776;9.280;2023-03-15T17:25:47;3.20;99.90
11619;DHT22;5865;48.776;9.280;2023-03-15T17:28:14;3.20;99.90
11619;DHT22;5865;48.776;9.280;2023-03-15T17:30:41;3.00;99.90
11619;DHT22;5865;48.776;9.280;2023-03-15T17:33:09;3.00;99.90
11619;DHT22;5865;48.776;9.280;2023-03-15T17:35:39;2.90;99.90
11619;DHT22;5865;48.776;9.280;2023-03-15T17:38:14;2.70;99.90
11619;DHT22;5865;48.776;9.280;2023-03-15T17:40:41;2.20;99.90
11619;DHT22;5865;48.776;9.280;2023-03-15T17:43:11;2.20;99.90
11619;DHT22;5865;48.776;9.280;2023-03-15T17:45:38;2.10;99.90
11619;DHT22;5865;48.776;9.280;2023-03-15T17:48:06;1.90;99.90
11619;DHT22;5865;48.776;9.280;2023-03-15T17:50:34;1.60;99.90
11619;DHT22;5865;48.776;9.280;2023-03-15T17:53:03;1.60;99.90
11619;DHT22;5865;48.776;9.280;2023-03-15T17:55:31;1.60;99.90
11619;DHT22;5865;48.776;9.280;2023-03-15T17:58:00;1.50;99.90
11619;DHT22;5865;48.776;9.280;2023-03-15T18:00:27;1.50;99.90
11619;DHT22;5865;48.776;9.280;2023-03-15T18:02:57;1.40;99.90
11619;DHT22;5865;48.776;9.280;2023-03-15T18:05:26;1.20;99.90
11619;DHT22;5865;48.776;9.280;2023-03-15T18:07:55;1.20;99.90
11619;DHT22;5865;48.776;9.280;2023-03-15T18:10:23;0.90;99.90
11619;DHT22;5865;48.776;9.280;2023-03-15T18:12:52;0.90;99.90
11619;DHT22;5865;48.776;9.280;2023-03-15T18:15:20;0.80;99.90
11619;DHT22;5865;48.776;9.280;2023-03-15T18:17:47;0.80;99.90
11619;DHT22;5865;48.776;9.280;2023-03-15T18:20:15;0.60;99.90
11619;DHT22;5865;48.776;9.280;2023-03-15T18:22:43;0.60;99.90
11619;DHT22;5865;48.776;9.280;2023-03-15T18:25:16;0.60;99.90
11619;DHT22;5865;48.776;9.280;2023-03-15T18:27:44;0.50;99.90
11619;DHT22;5865;48.776;9.280;2023-03-15T18:30:13;0.50;99.90
11619;DHT22;5865;48.776;9.280;2023-03-15T18:32:40;0.50;99.90
11619;DHT22;5865;48.776;9.280;2023-03-15T18:35:11;0.40;99.90
11619;DHT22;5865;48.776;9.280;2023-03-15T18:37:39;0.40;99.90
11619;DHT22;5865;48.776;9.280;2023-03-15T18:40:07;0.30;99.90
11619;DHT22;5865;48.776;9.280;2023-03-15T18:42:36;0.30;99.90
11619;DHT22;5865;48.776;9.280;2023-03-15T18:45:05;0.10;99.90
11619;DHT22;5865;48.776;9.280;2023-03-15T18:47:32;0.00;99.90
11619;DHT22;5865;48.776;9.280;2023-03-15T18:49:59;0.10;99.90
11619;DHT22;5865;48.776;9.280;2023-03-15T18:52:26;0.00;99.90
11619;DHT22;5865;48.776;9.280;2023-03-15T18:54:53;0.10;99.90
11619;DHT22;5865;48.776;9.280;2023-03-15T18:57:19;0.10;99.90
11619;DHT22;5865;48.776;9.280;2023-03-15T18:59:48;0.10;99.90
11619;DHT22;5865;48.776;9.280;2023-03-15T19:02:15;0.00;99.90
11619;DHT22;5865;48.776;9.280;2023-03-15T19:04:42;0.00;99.90
11619;DHT22;5865;48.776;9.280;2023-03-15T19:07:09;0.10;99.90
11619;DHT22;5865;48.776;9.280;2023-03-15T19:09:36;0.00;99.90
11619;DHT22;5865;48.776;9.280;2023-03-15T19:12:03;0.00;99.90
11619;DHT22;5865;48.776;9.280;2023-03-15T19:14:30;-0.20;99.90
11619;DHT22;5865;48.776;9.280;2023-03-15T19:16:59;-0.10;99.90
11619;DHT22;5865;48.776;9.280;2023-03-15T19:19:26;0.00;99.90
11619;DHT22;5865;48.776;9.280;2023-03-15T19:21:53;-0.10;99.90
11619;DHT22;5865;48.776;9.280;2023-03-15T19:26:48;-0.20;99.90
11619;DHT22;5865;48.776;9.280;2023-03-15T19:29:15;-0.20;99.90
